sensor_id;sensor_type;location;lat;lon;timestamp;P1;durP1;ratioP1;P2;durP2;ratioP2
39102;SDS011;24847;48.218;16.414;2023-07-13T00:01:34;3.45;;;0.98;;
39102;SDS011;24847;48.218;16.414;2023-07-13T00:06:56;0.98;;;0.73;;
39102;SDS011;24847;48.218;16.414;2023-07-13T00:12:23;1.13;;;0.80;;
39102;SDS011;24847;48.218;16.414;2023-07-13T00:23:12;0.85;;;0.73;;
39102;SDS011;24847;48.218;16.414;2023-07-13T00:28:34;1.45;;;0.68;;
39102;SDS011;24847;48.218;16.414;2023-07-13T00:33:58;0.90;;;0.77;;
39102;SDS011;24847;48.218;16.414;2023-07-13T00:39:21;1.60;;;0.60;;
39102;SDS011;24847;48.218;16.414;2023-07-13T00:50:28;0.82;;;0.68;;
39102;SDS011;24847;48.218;16.414;2023-07-13T00:55:51;0.70;;;0.60;;
39102;SDS011;24847;48.218;16.414;2023-07-13T01:01:15;0.70;;;0.60;;
39102;SDS011;24847;48.218;16.414;2023-07-13T01:06:39;0.77;;;0.55;;
39102;SDS011;24847;48.218;16.414;2023-07-13T01:12:04;1.00;;;0.50;;
39102;SDS011;24847;48.218;16.414;2023-07-13T01:17:28;1.30;;;0.80;;
39102;SDS011;24847;48.218;16.414;2023-07-13T01:22:53;1.73;;;0.70;;
39102;SDS011;24847;48.218;16.414;2023-07-13T01:28:15;1.10;;;0.80;;
39102;SDS011;24847;48.218;16.414;2023-07-13T01:33:39;1.02;;;0.70;;
39102;SDS011;24847;48.218;16.414;2023-07-13T01:39:04;1.15;;;0.60;;
39102;SDS011;24847;48.218;16.414;2023-07-13T01:44:26;0.70;;;0.60;;
39102;SDS011;24847;48.218;16.414;2023-07-13T01:49:49;0.57;;;0.50;;
39102;SDS011;24847;48.218;16.414;2023-07-13T01:55:13;0.70;;;0.60;;
39102;SDS011;24847;48.218;16.414;2023-07-13T02:00:36;1.00;;;0.63;;
39102;SDS011;24847;48.218;16.414;2023-07-13T02:05:58;0.90;;;0.47;;
39102;SDS011;24847;48.218;16.414;2023-07-13T02:11:22;1.23;;;0.82;;
39102;SDS011;24847;48.218;16.414;2023-07-13T02:16:45;1.05;;;0.68;;
39102;SDS011;24847;48.218;16.414;2023-07-13T02:22:08;2.80;;;0.80;;
39102;SDS011;24847;48.218;16.414;2023-07-13T02:27:32;1.15;;;0.70;;
39102;SDS011;24847;48.218;16.414;2023-07-13T02:32:55;1.77;;;0.95;;
39102;SDS011;24847;48.218;16.414;2023-07-13T02:38:17;1.20;;;0.70;;
39102;SDS011;24847;48.218;16.414;2023-07-13T02:43:42;0.95;;;0.80;;
39102;SDS011;24847;48.218;16.414;2023-07-13T02:49:04;1.13;;;0.80;;
39102;SDS011;24847;48.218;16.414;2023-07-13T02:54:27;1.45;;;1.00;;
39102;SDS011;24847;48.218;16.414;2023-07-13T02:59:51;2.65;;;0.93;;
39102;SDS011;24847;48.218;16.414;2023-07-13T03:05:14;1.15;;;0.73;;
39102;SDS011;24847;48.218;16.414;2023-07-13T03:10:37;1.65;;;1.13;;
39102;SDS011;24847;48.218;16.414;2023-07-13T03:16:01;1.65;;;0.85;;
39102;SDS011;24847;48.218;16.414;2023-07-13T03:21:24;1.67;;;1.15;;
39102;SDS011;24847;48.218;16.414;2023-07-13T03:26:46;2.60;;;1.55;;
39102;SDS011;24847;48.218;16.414;2023-07-13T03:32:10;1.63;;;1.08;;
39102;SDS011;24847;48.218;16.414;2023-07-13T03:37:32;1.50;;;1.08;;
39102;SDS011;24847;48.218;16.414;2023-07-13T03:42:55;2.38;;;0.80;;
39102;SDS011;24847;48.218;16.414;2023-07-13T03:48:19;1.60;;;0.73;;
39102;SDS011;24847;48.218;16.414;2023-07-13T03:53:42;1.75;;;1.00;;
39102;SDS011;24847;48.218;16.414;2023-07-13T03:59:06;1.10;;;0.70;;
39102;SDS011;24847;48.218;16.414;2023-07-13T04:04:30;1.88;;;0.90;;
39102;SDS011;24847;48.218;16.414;2023-07-13T04:09:52;2.22;;;1.00;;
39102;SDS011;24847;48.218;16.414;2023-07-13T04:15:15;2.10;;;1.00;;
39102;SDS011;24847;48.218;16.414;2023-07-13T04:20:38;1.67;;;0.90;;
39102;SDS011;24847;48.218;16.414;2023-07-13T04:26:01;1.48;;;0.85;;
39102;SDS011;24847;48.218;16.414;2023-07-13T04:31:23;3.78;;;1.60;;
39102;SDS011;24847;48.218;16.414;2023-07-13T04:36:47;1.65;;;1.05;;
39102;SDS011;24847;48.218;16.414;2023-07-13T04:42:10;1.58;;;1.02;;
39102;SDS011;24847;48.218;16.414;2023-07-13T04:47:33;1.38;;;1.02;;
39102;SDS011;24847;48.218;16.414;2023-07-13T04:52:56;1.92;;;1.13;;
39102;SDS011;24847;48.218;16.414;2023-07-13T04:58:20;2.38;;;1.20;;
39102;SDS011;24847;48.218;16.414;2023-07-13T05:03:43;1.77;;;1.15;;
39102;SDS011;24847;48.218;16.414;2023-07-13T05:09:06;4.18;;;1.10;;
39102;SDS011;24847;48.218;16.414;2023-07-13T05:14:29;2.92;;;1.17;;
39102;SDS011;24847;48.218;16.414;2023-07-13T05:19:52;2.35;;;1.20;;
39102;SDS011;24847;48.218;16.414;2023-07-13T05:25:16;2.63;;;0.98;;
39102;SDS011;24847;48.218;16.414;2023-07-13T05:30:39;1.95;;;0.95;;
39102;SDS011;24847;48.218;16.414;2023-07-13T05:36:01;1.38;;;0.77;;
39102;SDS011;24847;48.218;16.414;2023-07-13T05:41:25;1.38;;;0.90;;
39102;SDS011;24847;48.218;16.414;2023-07-13T05:46:48;2.90;;;0.90;;
39102;SDS011;24847;48.218;16.414;2023-07-13T05:52:10;1.23;;;0.68;;
39102;SDS011;24847;48.218;16.414;2023-07-13T05:57:34;1.35;;;0.68;;
39102;SDS011;24847;48.218;16.414;2023-07-13T06:02:57;1.98;;;0.80;;
39102;SDS011;24847;48.218;16.414;2023-07-13T06:08:20;0.63;;;0.57;;
39102;SDS011;24847;48.218;16.414;2023-07-13T06:13:44;1.17;;;0.70;;
39102;SDS011;24847;48.218;16.414;2023-07-13T06:19:06;2.25;;;0.80;;
39102;SDS011;24847;48.218;16.414;2023-07-13T06:24:29;1.98;;;0.70;;
39102;SDS011;24847;48.218;16.414;2023-07-13T06:29:52;1.98;;;0.60;;
39102;SDS011;24847;48.218;16.414;2023-07-13T06:35:15;0.95;;;0.63;;
39102;SDS011;24847;48.218;16.414;2023-07-13T06:40:38;1.63;;;0.73;;
39102;SDS011;24847;48.218;16.414;2023-07-13T06:46:01;1.77;;;0.60;;
39102;SDS011;24847;48.218;16.414;2023-07-13T06:51:24;1.20;;;0.60;;
39102;SDS011;24847;48.218;16.414;2023-07-13T06:56:47;1.50;;;0.60;;
39102;SDS011;24847;48.218;16.414;2023-07-13T07:02:11;1.35;;;0.60;;
39102;SDS011;24847;48.218;16.414;2023-07-13T07:07:33;1.35;;;0.57;;
39102;SDS011;24847;48.218;16.414;2023-07-13T07:12:56;1.73;;;0.80;;
39102;SDS011;24847;48.218;16.414;2023-07-13T07:18:19;0.98;;;0.68;;
39102;SDS011;24847;48.218;16.414;2023-07-13T07:23:42;1.42;;;0.65;;
39102;SDS011;24847;48.218;16.414;2023-07-13T07:29:05;0.90;;;0.60;;
39102;SDS011;24847;48.218;16.414;2023-07-13T07:34:29;2.08;;;0.80;;
39102;SDS011;24847;48.218;16.414;2023-07-13T07:39:52;3.53;;;0.70;;
39102;SDS011;24847;48.218;16.414;2023-07-13T07:45:14;1.40;;;0.77;;
39102;SDS011;24847;48.218;16.414;2023-07-13T07:50:38;0.88;;;0.80;;
39102;SDS011;24847;48.218;16.414;2023-07-13T07:56:01;1.33;;;0.75;;
39102;SDS011;24847;48.218;16.414;2023-07-13T08:01:24;1.40;;;0.50;;
39102;SDS011;24847;48.218;16.414;2023-07-13T08:06:48;2.17;;;0.60;;
39102;SDS011;24847;48.218;16.414;2023-07-13T08:12:10;0.95;;;0.60;;
39102;SDS011;24847;48.218;16.414;2023-07-13T08:17:33;0.93;;;0.57;;
39102;SDS011;24847;48.218;16.414;2023-07-13T08:22:57;0.93;;;0.70;;
39102;SDS011;24847;48.218;16.414;2023-07-13T08:28:19;1.35;;;0.68;;
39102;SDS011;24847;48.218;16.414;2023-07-13T08:33:42;0.95;;;0.77;;
39102;SDS011;24847;48.218;16.414;2023-07-13T08:39:07;2.17;;;0.85;;
39102;SDS011;24847;48.218;16.414;2023-07-13T08:44:31;1.10;;;1.00;;
39102;SDS011;24847;48.218;16.414;2023-07-13T08:50:04;0.75;;;0.70;;
39102;SDS011;24847;48.218;16.414;2023-07-13T08:55:34;0.80;;;0.80;;
39102;SDS011;24847;48.218;16.414;2023-07-13T09:01:02;1.65;;;1.13;;
39102;SDS011;24847;48.218;16.414;2023-07-13T09:06:39;1.60;;;0.95;;
39102;SDS011;24847;48.218;16.414;2023-07-13T09:12:22;2.08;;;1.10;;
39102;SDS011;24847;48.218;16.414;2023-07-13T09:17:52;3.97;;;1.40;;
39102;SDS011;24847;48.218;16.414;2023-07-13T09:23:19;1.60;;;1.30;;
39102;SDS011;24847;48.218;16.414;2023-07-13T09:28:46;3.45;;;1.33;;
39102;SDS011;24847;48.218;16.414;2023-07-13T09:34:13;2.47;;;1.40;;
39102;SDS011;24847;48.218;16.414;2023-07-13T09:39:36;1.60;;;1.50;;
39102;SDS011;24847;48.218;16.414;2023-07-13T09:45:04;3.63;;;1.80;;
39102;SDS011;24847;48.218;16.414;2023-07-13T09:50:27;2.58;;;1.70;;
39102;SDS011;24847;48.218;16.414;2023-07-13T09:55:50;1.63;;;1.42;;
39102;SDS011;24847;48.218;16.414;2023-07-13T10:01:14;2.53;;;1.60;;
39102;SDS011;24847;48.218;16.414;2023-07-13T10:06:36;2.60;;;1.77;;
39102;SDS011;24847;48.218;16.414;2023-07-13T10:12:01;1.85;;;1.70;;
39102;SDS011;24847;48.218;16.414;2023-07-13T10:17:27;1.92;;;1.73;;
39102;SDS011;24847;48.218;16.414;2023-07-13T10:22:54;1.90;;;1.75;;
39102;SDS011;24847;48.218;16.414;2023-07-13T10:28:25;1.77;;;1.67;;
39102;SDS011;24847;48.218;16.414;2023-07-13T10:33:53;2.83;;;1.73;;
39102;SDS011;24847;48.218;16.414;2023-07-13T10:39:16;1.70;;;1.55;;
39102;SDS011;24847;48.218;16.414;2023-07-13T10:44:42;2.13;;;1.70;;
39102;SDS011;24847;48.218;16.414;2023-07-13T10:50:08;2.33;;;1.80;;
39102;SDS011;24847;48.218;16.414;2023-07-13T10:55:41;1.83;;;1.65;;
39102;SDS011;24847;48.218;16.414;2023-07-13T11:01:21;1.92;;;1.60;;
39102;SDS011;24847;48.218;16.414;2023-07-13T11:06:48;2.08;;;1.70;;
39102;SDS011;24847;48.218;16.414;2023-07-13T11:18:20;1.83;;;1.73;;
39102;SDS011;24847;48.218;16.414;2023-07-13T11:23:51;2.03;;;1.80;;
39102;SDS011;24847;48.218;16.414;2023-07-13T11:29:23;1.90;;;1.80;;
39102;SDS011;24847;48.218;16.414;2023-07-13T11:34:53;2.03;;;1.73;;
39102;SDS011;24847;48.218;16.414;2023-07-13T11:40:17;1.75;;;1.35;;
39102;SDS011;24847;48.218;16.414;2023-07-13T11:45:41;3.17;;;1.80;;
39102;SDS011;24847;48.218;16.414;2023-07-13T11:51:04;2.65;;;1.73;;
39102;SDS011;24847;48.218;16.414;2023-07-13T11:56:28;2.17;;;1.63;;
39102;SDS011;24847;48.218;16.414;2023-07-13T12:01:53;1.83;;;1.60;;
39102;SDS011;24847;48.218;16.414;2023-07-13T12:07:18;1.80;;;1.70;;
39102;SDS011;24847;48.218;16.414;2023-07-13T12:12:46;1.75;;;1.55;;
39102;SDS011;24847;48.218;16.414;2023-07-13T12:18:12;2.80;;;1.60;;
39102;SDS011;24847;48.218;16.414;2023-07-13T12:23:37;1.77;;;1.48;;
39102;SDS011;24847;48.218;16.414;2023-07-13T12:29:04;1.67;;;1.58;;
39102;SDS011;24847;48.218;16.414;2023-07-13T12:34:28;2.70;;;1.83;;
39102;SDS011;24847;48.218;16.414;2023-07-13T12:39:51;2.80;;;1.55;;
39102;SDS011;24847;48.218;16.414;2023-07-13T12:45:17;1.60;;;1.50;;
39102;SDS011;24847;48.218;16.414;2023-07-13T12:50:45;4.18;;;1.70;;
39102;SDS011;24847;48.218;16.414;2023-07-13T12:56:14;1.55;;;1.45;;
39102;SDS011;24847;48.218;16.414;2023-07-13T13:01:45;1.67;;;1.42;;
39102;SDS011;24847;48.218;16.414;2023-07-13T13:07:10;1.60;;;1.50;;
39102;SDS011;24847;48.218;16.414;2023-07-13T13:12:33;3.67;;;1.83;;
39102;SDS011;24847;48.218;16.414;2023-07-13T13:17:57;2.55;;;1.48;;
39102;SDS011;24847;48.218;16.414;2023-07-13T13:23:20;2.85;;;1.70;;
39102;SDS011;24847;48.218;16.414;2023-07-13T13:28:44;2.78;;;1.58;;
39102;SDS011;24847;48.218;16.414;2023-07-13T13:34:10;2.08;;;1.38;;
39102;SDS011;24847;48.218;16.414;2023-07-13T13:39:35;1.77;;;1.50;;
39102;SDS011;24847;48.218;16.414;2023-07-13T13:44:59;3.05;;;1.88;;
39102;SDS011;24847;48.218;16.414;2023-07-13T13:50:23;1.70;;;1.60;;
39102;SDS011;24847;48.218;16.414;2023-07-13T13:55:45;1.73;;;1.40;;
39102;SDS011;24847;48.218;16.414;2023-07-13T14:01:11;2.45;;;1.70;;
39102;SDS011;24847;48.218;16.414;2023-07-13T14:06:37;2.00;;;1.53;;
39102;SDS011;24847;48.218;16.414;2023-07-13T14:12:00;1.77;;;1.58;;
39102;SDS011;24847;48.218;16.414;2023-07-13T14:17:23;1.55;;;1.40;;
39102;SDS011;24847;48.218;16.414;2023-07-13T14:22:50;1.45;;;1.35;;
39102;SDS011;24847;48.218;16.414;2023-07-13T14:28:20;2.15;;;1.50;;
39102;SDS011;24847;48.218;16.414;2023-07-13T14:33:45;1.75;;;1.65;;
39102;SDS011;24847;48.218;16.414;2023-07-13T14:39:13;1.65;;;1.55;;
39102;SDS011;24847;48.218;16.414;2023-07-13T14:44:39;2.75;;;2.00;;
39102;SDS011;24847;48.218;16.414;2023-07-13T14:50:02;2.85;;;1.90;;
39102;SDS011;24847;48.218;16.414;2023-07-13T14:55:27;2.55;;;2.28;;
39102;SDS011;24847;48.218;16.414;2023-07-13T15:00:49;1.90;;;1.70;;
39102;SDS011;24847;48.218;16.414;2023-07-13T15:06:15;2.97;;;1.63;;
39102;SDS011;24847;48.218;16.414;2023-07-13T15:11:41;2.08;;;1.52;;
39102;SDS011;24847;48.218;16.414;2023-07-13T15:17:04;2.50;;;2.30;;
39102;SDS011;24847;48.218;16.414;2023-07-13T15:22:40;2.03;;;1.88;;
39102;SDS011;24847;48.218;16.414;2023-07-13T15:28:05;2.00;;;1.58;;
39102;SDS011;24847;48.218;16.414;2023-07-13T15:33:28;2.03;;;1.83;;
39102;SDS011;24847;48.218;16.414;2023-07-13T15:38:52;2.78;;;1.38;;
39102;SDS011;24847;48.218;16.414;2023-07-13T15:44:22;2.20;;;1.73;;
39102;SDS011;24847;48.218;16.414;2023-07-13T15:49:48;3.60;;;1.60;;
39102;SDS011;24847;48.218;16.414;2023-07-13T15:55:11;1.67;;;1.42;;
39102;SDS011;24847;48.218;16.414;2023-07-13T16:00:36;2.13;;;1.38;;
39102;SDS011;24847;48.218;16.414;2023-07-13T16:06:00;2.42;;;1.35;;
39102;SDS011;24847;48.218;16.414;2023-07-13T16:11:24;2.97;;;1.58;;
39102;SDS011;24847;48.218;16.414;2023-07-13T16:16:50;2.10;;;1.60;;
39102;SDS011;24847;48.218;16.414;2023-07-13T16:22:16;1.77;;;1.33;;
39102;SDS011;24847;48.218;16.414;2023-07-13T16:27:41;2.67;;;1.50;;
39102;SDS011;24847;48.218;16.414;2023-07-13T16:33:06;1.30;;;1.10;;
39102;SDS011;24847;48.218;16.414;2023-07-13T16:38:29;2.85;;;2.47;;
39102;SDS011;24847;48.218;16.414;2023-07-13T16:43:52;2.42;;;1.88;;
39102;SDS011;24847;48.218;16.414;2023-07-13T16:49:24;2.08;;;1.80;;
39102;SDS011;24847;48.218;16.414;2023-07-13T16:54:49;2.25;;;1.80;;
39102;SDS011;24847;48.218;16.414;2023-07-13T17:00:16;2.72;;;1.58;;
39102;SDS011;24847;48.218;16.414;2023-07-13T17:05:49;1.60;;;1.33;;
39102;SDS011;24847;48.218;16.414;2023-07-13T17:11:12;3.33;;;3.03;;
39102;SDS011;24847;48.218;16.414;2023-07-13T17:16:37;2.60;;;2.10;;
39102;SDS011;24847;48.218;16.414;2023-07-13T17:22:04;1.98;;;1.38;;
39102;SDS011;24847;48.218;16.414;2023-07-13T17:27:30;1.55;;;1.38;;
39102;SDS011;24847;48.218;16.414;2023-07-13T17:32:53;2.90;;;1.67;;
39102;SDS011;24847;48.218;16.414;2023-07-13T17:38:18;2.95;;;2.30;;
39102;SDS011;24847;48.218;16.414;2023-07-13T17:43:42;2.78;;;1.70;;
39102;SDS011;24847;48.218;16.414;2023-07-13T17:49:11;1.85;;;1.40;;
39102;SDS011;24847;48.218;16.414;2023-07-13T17:54:51;1.80;;;1.30;;
39102;SDS011;24847;48.218;16.414;2023-07-13T18:00:16;2.72;;;1.30;;
39102;SDS011;24847;48.218;16.414;2023-07-13T18:05:55;5.47;;;4.57;;
39102;SDS011;24847;48.218;16.414;2023-07-13T18:11:20;2.55;;;1.70;;
39102;SDS011;24847;48.218;16.414;2023-07-13T18:16:47;3.03;;;1.42;;
39102;SDS011;24847;48.218;16.414;2023-07-13T18:22:15;1.40;;;1.08;;
39102;SDS011;24847;48.218;16.414;2023-07-13T18:27:42;2.08;;;1.30;;
39102;SDS011;24847;48.218;16.414;2023-07-13T18:33:08;2.40;;;1.50;;
39102;SDS011;24847;48.218;16.414;2023-07-13T18:38:39;1.55;;;1.45;;
39102;SDS011;24847;48.218;16.414;2023-07-13T18:44:05;2.85;;;1.27;;
39102;SDS011;24847;48.218;16.414;2023-07-13T18:49:29;1.60;;;1.30;;
39102;SDS011;24847;48.218;16.414;2023-07-13T18:54:54;2.25;;;1.10;;
39102;SDS011;24847;48.218;16.414;2023-07-13T19:00:18;1.85;;;1.20;;
39102;SDS011;24847;48.218;16.414;2023-07-13T19:05:47;2.60;;;1.23;;
39102;SDS011;24847;48.218;16.414;2023-07-13T19:11:12;1.55;;;1.00;;
39102;SDS011;24847;48.218;16.414;2023-07-13T19:16:39;2.38;;;1.50;;
39102;SDS011;24847;48.218;16.414;2023-07-13T19:22:03;2.00;;;1.30;;
39102;SDS011;24847;48.218;16.414;2023-07-13T19:27:28;2.22;;;1.20;;
39102;SDS011;24847;48.218;16.414;2023-07-13T19:32:54;2.97;;;1.40;;
39102;SDS011;24847;48.218;16.414;2023-07-13T19:38:20;1.50;;;1.27;;
39102;SDS011;24847;48.218;16.414;2023-07-13T19:43:47;2.35;;;1.30;;
39102;SDS011;24847;48.218;16.414;2023-07-13T19:49:14;2.38;;;1.48;;
39102;SDS011;24847;48.218;16.414;2023-07-13T19:54:38;2.35;;;1.40;;
39102;SDS011;24847;48.218;16.414;2023-07-13T20:00:05;1.40;;;1.10;;
39102;SDS011;24847;48.218;16.414;2023-07-13T20:05:39;2.00;;;1.10;;
39102;SDS011;24847;48.218;16.414;2023-07-13T20:11:07;2.40;;;1.20;;
39102;SDS011;24847;48.218;16.414;2023-07-13T20:16:34;2.80;;;1.25;;
39102;SDS011;24847;48.218;16.414;2023-07-13T20:21:59;1.50;;;1.10;;
39102;SDS011;24847;48.218;16.414;2023-07-13T20:27:23;3.00;;;1.45;;
39102;SDS011;24847;48.218;16.414;2023-07-13T20:32:46;2.03;;;1.20;;
39102;SDS011;24847;48.218;16.414;2023-07-13T20:38:13;2.20;;;1.50;;
39102;SDS011;24847;48.218;16.414;2023-07-13T20:43:38;2.22;;;1.25;;
39102;SDS011;24847;48.218;16.414;2023-07-13T20:49:04;2.67;;;1.30;;
39102;SDS011;24847;48.218;16.414;2023-07-13T20:54:29;1.60;;;1.33;;
39102;SDS011;24847;48.218;16.414;2023-07-13T20:59:52;2.83;;;1.88;;
39102;SDS011;24847;48.218;16.414;2023-07-13T21:05:16;2.58;;;1.38;;
39102;SDS011;24847;48.218;16.414;2023-07-13T21:10:43;2.42;;;1.30;;
39102;SDS011;24847;48.218;16.414;2023-07-13T21:16:13;1.80;;;1.30;;
39102;SDS011;24847;48.218;16.414;2023-07-13T21:21:40;3.05;;;1.50;;
39102;SDS011;24847;48.218;16.414;2023-07-13T21:27:04;1.23;;;1.13;;
39102;SDS011;24847;48.218;16.414;2023-07-13T21:32:28;2.63;;;1.55;;
39102;SDS011;24847;48.218;16.414;2023-07-13T21:37:51;2.60;;;1.20;;
39102;SDS011;24847;48.218;16.414;2023-07-13T21:43:16;1.52;;;1.23;;
39102;SDS011;24847;48.218;16.414;2023-07-13T21:48:38;2.00;;;1.25;;
39102;SDS011;24847;48.218;16.414;2023-07-13T21:54:01;1.05;;;0.95;;
39102;SDS011;24847;48.218;16.414;2023-07-13T21:59:36;1.13;;;1.02;;
39102;SDS011;24847;48.218;16.414;2023-07-13T22:04:59;1.00;;;0.90;;
39102;SDS011;24847;48.218;16.414;2023-07-13T22:10:21;1.85;;;1.40;;
39102;SDS011;24847;48.218;16.414;2023-07-13T22:15:47;1.73;;;1.35;;
39102;SDS011;24847;48.218;16.414;2023-07-13T22:21:09;1.50;;;0.90;;
39102;SDS011;24847;48.218;16.414;2023-07-13T22:26:33;1.38;;;1.05;;
39102;SDS011;24847;48.218;16.414;2023-07-13T22:31:58;2.25;;;1.10;;
39102;SDS011;24847;48.218;16.414;2023-07-13T22:37:21;1.35;;;1.02;;
39102;SDS011;24847;48.218;16.414;2023-07-13T22:42:43;1.73;;;1.20;;
39102;SDS011;24847;48.218;16.414;2023-07-13T22:48:08;2.78;;;1.30;;
39102;SDS011;24847;48.218;16.414;2023-07-13T22:53:37;1.60;;;1.10;;
39102;SDS011;24847;48.218;16.414;2023-07-13T22:59:00;1.33;;;0.98;;
39102;SDS011;24847;48.218;16.414;2023-07-13T23:04:24;1.35;;;1.00;;
39102;SDS011;24847;48.218;16.414;2023-07-13T23:09:48;1.98;;;1.10;;
39102;SDS011;24847;48.218;16.414;2023-07-13T23:15:10;1.35;;;0.93;;
39102;SDS011;24847;48.218;16.414;2023-07-13T23:20:40;1.65;;;0.90;;
39102;SDS011;24847;48.218;16.414;2023-07-13T23:26:04;1.77;;;1.15;;
39102;SDS011;24847;48.218;16.414;2023-07-13T23:31:32;2.27;;;1.40;;
39102;SDS011;24847;48.218;16.414;2023-07-13T23:36:56;1.40;;;1.02;;
39102;SDS011;24847;48.218;16.414;2023-07-13T23:42:19;1.58;;;1.02;;
39102;SDS011;24847;48.218;16.414;2023-07-13T23:47:41;2.65;;;1.00;;
39102;SDS011;24847;48.218;16.414;2023-07-13T23:53:09;1.20;;;0.90;;
39102;SDS011;24847;48.218;16.414;2023-07-13T23:58:33;1.65;;;1.08;;
